sensor_id;sensor_type;location;lat;lon;timestamp;P1;durP1;ratioP1;P2;durP2;ratioP2
12784;SDS011;6456;42.680;23.260;2022-11-03T00:00:58;10.47;;;4.13;;
12784;SDS011;6456;42.680;23.260;2022-11-03T00:03:27;8.67;;;3.70;;
12784;SDS011;6456;42.680;23.260;2022-11-03T00:05:54;9.73;;;3.23;;
12784;SDS011;6456;42.680;23.260;2022-11-03T00:08:30;8.90;;;3.50;;
12784;SDS011;6456;42.680;23.260;2022-11-03T00:11:00;4.63;;;3.30;;
12784;SDS011;6456;42.680;23.260;2022-11-03T00:13:29;5.07;;;3.43;;
12784;SDS011;6456;42.680;23.260;2022-11-03T00:15:56;8.00;;;3.63;;
12784;SDS011;6456;42.680;23.260;2022-11-03T00:18:22;9.43;;;4.13;;
12784;SDS011;6456;42.680;23.260;2022-11-03T00:20:55;8.80;;;3.70;;
12784;SDS011;6456;42.680;23.260;2022-11-03T00:23:24;6.63;;;3.73;;
12784;SDS011;6456;42.680;23.260;2022-11-03T00:25:52;7.90;;;3.90;;
12784;SDS011;6456;42.680;23.260;2022-11-03T00:28:19;6.33;;;3.70;;
12784;SDS011;6456;42.680;23.260;2022-11-03T00:30:46;9.10;;;3.40;;
12784;SDS011;6456;42.680;23.260;2022-11-03T00:33:13;6.97;;;3.70;;
12784;SDS011;6456;42.680;23.260;2022-11-03T00:35:40;8.13;;;4.13;;
12784;SDS011;6456;42.680;23.260;2022-11-03T00:38:08;8.50;;;4.47;;
12784;SDS011;6456;42.680;23.260;2022-11-03T00:40:35;5.17;;;3.50;;
12784;SDS011;6456;42.680;23.260;2022-11-03T00:43:02;5.07;;;3.63;;
12784;SDS011;6456;42.680;23.260;2022-11-03T00:45:29;10.43;;;4.10;;
12784;SDS011;6456;42.680;23.260;2022-11-03T00:47:55;7.03;;;3.87;;
12784;SDS011;6456;42.680;23.260;2022-11-03T00:50:40;5.10;;;3.83;;
12784;SDS011;6456;42.680;23.260;2022-11-03T00:53:09;9.67;;;4.10;;
12784;SDS011;6456;42.680;23.260;2022-11-03T00:55:35;7.13;;;4.03;;
12784;SDS011;6456;42.680;23.260;2022-11-03T00:58:02;8.57;;;3.87;;
12784;SDS011;6456;42.680;23.260;2022-11-03T01:00:29;6.63;;;4.07;;
12784;SDS011;6456;42.680;23.260;2022-11-03T01:02:56;7.07;;;3.53;;
12784;SDS011;6456;42.680;23.260;2022-11-03T01:05:23;9.93;;;4.30;;
12784;SDS011;6456;42.680;23.260;2022-11-03T01:08:09;6.40;;;3.83;;
12784;SDS011;6456;42.680;23.260;2022-11-03T01:10:36;8.03;;;3.80;;
12784;SDS011;6456;42.680;23.260;2022-11-03T01:13:23;8.87;;;4.07;;
12784;SDS011;6456;42.680;23.260;2022-11-03T01:15:50;7.30;;;3.90;;
12784;SDS011;6456;42.680;23.260;2022-11-03T01:18:17;10.37;;;3.90;;
12784;SDS011;6456;42.680;23.260;2022-11-03T01:20:45;8.13;;;3.90;;
12784;SDS011;6456;42.680;23.260;2022-11-03T01:23:13;10.13;;;4.47;;
12784;SDS011;6456;42.680;23.260;2022-11-03T01:25:40;6.97;;;3.70;;
12784;SDS011;6456;42.680;23.260;2022-11-03T01:28:08;6.53;;;3.80;;
12784;SDS011;6456;42.680;23.260;2022-11-03T01:30:35;7.60;;;3.97;;
12784;SDS011;6456;42.680;23.260;2022-11-03T01:33:02;5.67;;;3.70;;
12784;SDS011;6456;42.680;23.260;2022-11-03T01:35:29;7.83;;;4.00;;
12784;SDS011;6456;42.680;23.260;2022-11-03T01:37:56;6.23;;;4.30;;
12784;SDS011;6456;42.680;23.260;2022-11-03T01:40:24;5.70;;;3.80;;
12784;SDS011;6456;42.680;23.260;2022-11-03T01:42:51;6.23;;;3.60;;
12784;SDS011;6456;42.680;23.260;2022-11-03T01:45:18;9.20;;;4.00;;
12784;SDS011;6456;42.680;23.260;2022-11-03T01:47:47;8.53;;;4.60;;
12784;SDS011;6456;42.680;23.260;2022-11-03T01:50:14;9.20;;;5.13;;
12784;SDS011;6456;42.680;23.260;2022-11-03T01:52:45;7.07;;;5.10;;
12784;SDS011;6456;42.680;23.260;2022-11-03T01:55:17;20.67;;;5.50;;
12784;SDS011;6456;42.680;23.260;2022-11-03T01:57:50;7.43;;;5.17;;
12784;SDS011;6456;42.680;23.260;2022-11-03T02:00:21;9.90;;;6.77;;
12784;SDS011;6456;42.680;23.260;2022-11-03T02:02:48;8.50;;;6.17;;
12784;SDS011;6456;42.680;23.260;2022-11-03T02:05:16;10.33;;;6.67;;
12784;SDS011;6456;42.680;23.260;2022-11-03T02:07:45;8.70;;;6.73;;
12784;SDS011;6456;42.680;23.260;2022-11-03T02:10:18;11.10;;;7.13;;
12784;SDS011;6456;42.680;23.260;2022-11-03T02:12:45;11.63;;;7.47;;
12784;SDS011;6456;42.680;23.260;2022-11-03T02:15:15;9.23;;;6.73;;
12784;SDS011;6456;42.680;23.260;2022-11-03T02:17:45;10.43;;;7.27;;
12784;SDS011;6456;42.680;23.260;2022-11-03T02:20:16;9.53;;;6.33;;
12784;SDS011;6456;42.680;23.260;2022-11-03T02:22:50;13.53;;;6.77;;
12784;SDS011;6456;42.680;23.260;2022-11-03T02:25:40;9.07;;;5.67;;
12784;SDS011;6456;42.680;23.260;2022-11-03T02:28:09;14.87;;;6.03;;
12784;SDS011;6456;42.680;23.260;2022-11-03T02:30:38;8.80;;;6.03;;
12784;SDS011;6456;42.680;23.260;2022-11-03T02:33:10;8.27;;;5.50;;
12784;SDS011;6456;42.680;23.260;2022-11-03T02:35:52;11.23;;;5.40;;
12784;SDS011;6456;42.680;23.260;2022-11-03T02:38:23;8.70;;;5.43;;
12784;SDS011;6456;42.680;23.260;2022-11-03T02:40:56;9.33;;;5.13;;
12784;SDS011;6456;42.680;23.260;2022-11-03T02:43:26;9.03;;;5.27;;
12784;SDS011;6456;42.680;23.260;2022-11-03T02:45:54;11.07;;;4.93;;
12784;SDS011;6456;42.680;23.260;2022-11-03T02:48:21;9.70;;;5.17;;
12784;SDS011;6456;42.680;23.260;2022-11-03T02:50:48;10.03;;;5.77;;
12784;SDS011;6456;42.680;23.260;2022-11-03T02:53:15;7.20;;;5.00;;
12784;SDS011;6456;42.680;23.260;2022-11-03T02:55:45;8.23;;;5.33;;
12784;SDS011;6456;42.680;23.260;2022-11-03T02:58:20;9.23;;;5.90;;
12784;SDS011;6456;42.680;23.260;2022-11-03T03:00:53;7.60;;;5.57;;
12784;SDS011;6456;42.680;23.260;2022-11-03T03:03:25;8.50;;;5.80;;
12784;SDS011;6456;42.680;23.260;2022-11-03T03:05:56;7.90;;;5.50;;
12784;SDS011;6456;42.680;23.260;2022-11-03T03:08:27;7.10;;;5.73;;
12784;SDS011;6456;42.680;23.260;2022-11-03T03:10:56;8.40;;;5.63;;
12784;SDS011;6456;42.680;23.260;2022-11-03T03:13:27;12.13;;;5.90;;
12784;SDS011;6456;42.680;23.260;2022-11-03T03:15:56;9.37;;;5.90;;
12784;SDS011;6456;42.680;23.260;2022-11-03T03:18:36;11.73;;;6.20;;
12784;SDS011;6456;42.680;23.260;2022-11-03T03:21:14;9.80;;;6.23;;
12784;SDS011;6456;42.680;23.260;2022-11-03T03:23:44;8.10;;;5.73;;
12784;SDS011;6456;42.680;23.260;2022-11-03T03:26:16;10.73;;;6.00;;
12784;SDS011;6456;42.680;23.260;2022-11-03T03:28:50;9.27;;;6.03;;
12784;SDS011;6456;42.680;23.260;2022-11-03T03:31:21;12.97;;;6.37;;
12784;SDS011;6456;42.680;23.260;2022-11-03T03:33:51;9.60;;;6.03;;
12784;SDS011;6456;42.680;23.260;2022-11-03T03:36:20;9.80;;;6.17;;
12784;SDS011;6456;42.680;23.260;2022-11-03T03:38:49;11.43;;;6.73;;
12784;SDS011;6456;42.680;23.260;2022-11-03T03:41:20;9.07;;;6.07;;
12784;SDS011;6456;42.680;23.260;2022-11-03T03:43:52;12.40;;;6.57;;
12784;SDS011;6456;42.680;23.260;2022-11-03T03:46:22;9.93;;;5.80;;
12784;SDS011;6456;42.680;23.260;2022-11-03T03:48:53;10.73;;;6.37;;
12784;SDS011;6456;42.680;23.260;2022-11-03T03:51:21;8.23;;;5.97;;
12784;SDS011;6456;42.680;23.260;2022-11-03T03:53:51;12.47;;;6.73;;
12784;SDS011;6456;42.680;23.260;2022-11-03T03:56:20;10.13;;;6.40;;
12784;SDS011;6456;42.680;23.260;2022-11-03T03:58:53;9.10;;;6.17;;
12784;SDS011;6456;42.680;23.260;2022-11-03T04:01:20;11.13;;;6.43;;
12784;SDS011;6456;42.680;23.260;2022-11-03T04:03:47;12.97;;;6.57;;
12784;SDS011;6456;42.680;23.260;2022-11-03T04:06:14;8.20;;;5.97;;
12784;SDS011;6456;42.680;23.260;2022-11-03T04:08:41;11.33;;;6.63;;
12784;SDS011;6456;42.680;23.260;2022-11-03T04:11:08;10.60;;;6.67;;
12784;SDS011;6456;42.680;23.260;2022-11-03T04:13:53;13.20;;;6.40;;
12784;SDS011;6456;42.680;23.260;2022-11-03T04:16:37;9.13;;;6.97;;
12784;SDS011;6456;42.680;23.260;2022-11-03T04:19:22;12.53;;;6.63;;
12784;SDS011;6456;42.680;23.260;2022-11-03T04:22:15;10.20;;;6.57;;
12784;SDS011;6456;42.680;23.260;2022-11-03T04:24:42;9.70;;;6.83;;
12784;SDS011;6456;42.680;23.260;2022-11-03T04:27:15;10.67;;;6.33;;
12784;SDS011;6456;42.680;23.260;2022-11-03T04:29:53;10.47;;;6.83;;
12784;SDS011;6456;42.680;23.260;2022-11-03T04:32:22;9.27;;;6.17;;
12784;SDS011;6456;42.680;23.260;2022-11-03T04:34:50;11.70;;;6.80;;
12784;SDS011;6456;42.680;23.260;2022-11-03T04:37:18;12.90;;;6.43;;
12784;SDS011;6456;42.680;23.260;2022-11-03T04:39:45;9.80;;;7.00;;
12784;SDS011;6456;42.680;23.260;2022-11-03T04:42:13;11.33;;;6.27;;
12784;SDS011;6456;42.680;23.260;2022-11-03T04:44:44;12.03;;;6.47;;
12784;SDS011;6456;42.680;23.260;2022-11-03T04:47:13;11.23;;;7.20;;
12784;SDS011;6456;42.680;23.260;2022-11-03T04:49:43;13.20;;;7.83;;
12784;SDS011;6456;42.680;23.260;2022-11-03T04:52:13;11.73;;;7.20;;
12784;SDS011;6456;42.680;23.260;2022-11-03T04:54:41;13.20;;;7.33;;
12784;SDS011;6456;42.680;23.260;2022-11-03T04:57:10;13.03;;;6.90;;
12784;SDS011;6456;42.680;23.260;2022-11-03T04:59:39;14.27;;;8.17;;
12784;SDS011;6456;42.680;23.260;2022-11-03T05:02:11;20.97;;;8.27;;
12784;SDS011;6456;42.680;23.260;2022-11-03T05:04:41;10.97;;;7.27;;
12784;SDS011;6456;42.680;23.260;2022-11-03T05:07:12;15.57;;;7.53;;
12784;SDS011;6456;42.680;23.260;2022-11-03T05:09:50;11.03;;;6.83;;
12784;SDS011;6456;42.680;23.260;2022-11-03T05:12:18;10.73;;;7.63;;
12784;SDS011;6456;42.680;23.260;2022-11-03T05:14:46;10.93;;;7.43;;
12784;SDS011;6456;42.680;23.260;2022-11-03T05:17:22;12.97;;;7.63;;
12784;SDS011;6456;42.680;23.260;2022-11-03T05:19:50;17.70;;;8.90;;
12784;SDS011;6456;42.680;23.260;2022-11-03T05:22:22;14.70;;;8.17;;
12784;SDS011;6456;42.680;23.260;2022-11-03T05:24:59;15.97;;;8.97;;
12784;SDS011;6456;42.680;23.260;2022-11-03T05:27:28;25.97;;;9.13;;
12784;SDS011;6456;42.680;23.260;2022-11-03T05:29:55;21.50;;;8.57;;
12784;SDS011;6456;42.680;23.260;2022-11-03T05:32:27;18.77;;;9.07;;
12784;SDS011;6456;42.680;23.260;2022-11-03T05:34:56;17.10;;;8.23;;
12784;SDS011;6456;42.680;23.260;2022-11-03T05:37:24;19.90;;;8.10;;
12784;SDS011;6456;42.680;23.260;2022-11-03T05:39:53;17.17;;;8.80;;
12784;SDS011;6456;42.680;23.260;2022-11-03T05:42:24;23.70;;;8.87;;
12784;SDS011;6456;42.680;23.260;2022-11-03T05:44:55;19.70;;;8.10;;
12784;SDS011;6456;42.680;23.260;2022-11-03T05:47:23;19.07;;;8.07;;
12784;SDS011;6456;42.680;23.260;2022-11-03T05:49:55;16.03;;;8.50;;
12784;SDS011;6456;42.680;23.260;2022-11-03T05:52:26;24.43;;;9.73;;
12784;SDS011;6456;42.680;23.260;2022-11-03T05:54:54;20.97;;;9.87;;
12784;SDS011;6456;42.680;23.260;2022-11-03T05:57:24;20.37;;;9.57;;
12784;SDS011;6456;42.680;23.260;2022-11-03T05:59:55;19.53;;;9.50;;
12784;SDS011;6456;42.680;23.260;2022-11-03T06:02:27;29.30;;;10.53;;
12784;SDS011;6456;42.680;23.260;2022-11-03T06:05:11;26.23;;;9.30;;
12784;SDS011;6456;42.680;23.260;2022-11-03T06:07:49;21.70;;;9.10;;
12784;SDS011;6456;42.680;23.260;2022-11-03T06:10:28;17.27;;;8.57;;
12784;SDS011;6456;42.680;23.260;2022-11-03T06:13:00;21.60;;;9.80;;
12784;SDS011;6456;42.680;23.260;2022-11-03T06:15:30;21.30;;;9.77;;
12784;SDS011;6456;42.680;23.260;2022-11-03T06:17:59;22.87;;;9.67;;
12784;SDS011;6456;42.680;23.260;2022-11-03T06:20:37;35.83;;;10.57;;
12784;SDS011;6456;42.680;23.260;2022-11-03T06:23:07;26.23;;;9.60;;
12784;SDS011;6456;42.680;23.260;2022-11-03T06:25:36;28.13;;;10.73;;
12784;SDS011;6456;42.680;23.260;2022-11-03T06:28:07;27.83;;;10.50;;
12784;SDS011;6456;42.680;23.260;2022-11-03T06:30:40;25.20;;;10.83;;
12784;SDS011;6456;42.680;23.260;2022-11-03T06:33:11;17.30;;;10.33;;
12784;SDS011;6456;42.680;23.260;2022-11-03T06:35:42;22.27;;;9.97;;
12784;SDS011;6456;42.680;23.260;2022-11-03T06:38:13;20.07;;;10.07;;
12784;SDS011;6456;42.680;23.260;2022-11-03T06:40:43;21.87;;;10.70;;
12784;SDS011;6456;42.680;23.260;2022-11-03T06:43:15;18.93;;;10.77;;
12784;SDS011;6456;42.680;23.260;2022-11-03T06:45:47;20.77;;;11.17;;
12784;SDS011;6456;42.680;23.260;2022-11-03T06:48:19;20.77;;;11.33;;
12784;SDS011;6456;42.680;23.260;2022-11-03T06:50:50;17.07;;;11.10;;
12784;SDS011;6456;42.680;23.260;2022-11-03T06:53:22;19.77;;;10.97;;
12784;SDS011;6456;42.680;23.260;2022-11-03T06:55:52;20.80;;;11.77;;
12784;SDS011;6456;42.680;23.260;2022-11-03T06:58:23;21.20;;;11.77;;
12784;SDS011;6456;42.680;23.260;2022-11-03T07:00:54;17.53;;;11.20;;
12784;SDS011;6456;42.680;23.260;2022-11-03T07:03:24;13.83;;;10.33;;
12784;SDS011;6456;42.680;23.260;2022-11-03T07:05:57;18.13;;;11.23;;
12784;SDS011;6456;42.680;23.260;2022-11-03T07:08:27;17.17;;;10.97;;
12784;SDS011;6456;42.680;23.260;2022-11-03T07:10:56;14.73;;;11.43;;
12784;SDS011;6456;42.680;23.260;2022-11-03T07:13:27;19.87;;;11.13;;
12784;SDS011;6456;42.680;23.260;2022-11-03T07:15:56;16.00;;;11.57;;
12784;SDS011;6456;42.680;23.260;2022-11-03T07:18:24;17.97;;;11.13;;
12784;SDS011;6456;42.680;23.260;2022-11-03T07:20:53;21.57;;;11.20;;
12784;SDS011;6456;42.680;23.260;2022-11-03T07:23:27;18.20;;;11.23;;
12784;SDS011;6456;42.680;23.260;2022-11-03T07:25:57;16.07;;;11.53;;
12784;SDS011;6456;42.680;23.260;2022-11-03T07:28:27;17.90;;;12.20;;
12784;SDS011;6456;42.680;23.260;2022-11-03T07:30:57;17.63;;;11.30;;
12784;SDS011;6456;42.680;23.260;2022-11-03T07:33:25;16.80;;;11.53;;
12784;SDS011;6456;42.680;23.260;2022-11-03T07:35:55;19.17;;;12.00;;
12784;SDS011;6456;42.680;23.260;2022-11-03T07:38:26;18.17;;;11.80;;
12784;SDS011;6456;42.680;23.260;2022-11-03T07:40:55;20.77;;;11.73;;
12784;SDS011;6456;42.680;23.260;2022-11-03T07:43:27;24.97;;;11.37;;
12784;SDS011;6456;42.680;23.260;2022-11-03T07:45:56;20.07;;;12.67;;
12784;SDS011;6456;42.680;23.260;2022-11-03T07:48:26;19.00;;;12.00;;
12784;SDS011;6456;42.680;23.260;2022-11-03T07:50:58;19.33;;;11.23;;
12784;SDS011;6456;42.680;23.260;2022-11-03T07:53:34;31.53;;;14.13;;
12784;SDS011;6456;42.680;23.260;2022-11-03T07:56:12;15.47;;;11.53;;
12784;SDS011;6456;42.680;23.260;2022-11-03T07:58:41;18.63;;;12.47;;
12784;SDS011;6456;42.680;23.260;2022-11-03T08:01:15;21.63;;;13.60;;
12784;SDS011;6456;42.680;23.260;2022-11-03T08:03:49;17.97;;;12.87;;
12784;SDS011;6456;42.680;23.260;2022-11-03T08:06:16;21.30;;;13.87;;
12784;SDS011;6456;42.680;23.260;2022-11-03T08:08:45;23.37;;;12.87;;
12784;SDS011;6456;42.680;23.260;2022-11-03T08:11:12;20.13;;;13.17;;
12784;SDS011;6456;42.680;23.260;2022-11-03T08:13:39;19.90;;;12.73;;
12784;SDS011;6456;42.680;23.260;2022-11-03T08:16:06;19.30;;;14.17;;
12784;SDS011;6456;42.680;23.260;2022-11-03T08:18:33;18.73;;;12.93;;
12784;SDS011;6456;42.680;23.260;2022-11-03T08:21:01;19.90;;;13.17;;
12784;SDS011;6456;42.680;23.260;2022-11-03T08:23:31;22.40;;;13.50;;
12784;SDS011;6456;42.680;23.260;2022-11-03T08:26:00;19.23;;;13.00;;
12784;SDS011;6456;42.680;23.260;2022-11-03T08:28:27;17.97;;;13.13;;
12784;SDS011;6456;42.680;23.260;2022-11-03T08:30:57;18.60;;;12.30;;
12784;SDS011;6456;42.680;23.260;2022-11-03T08:33:28;15.40;;;11.10;;
12784;SDS011;6456;42.680;23.260;2022-11-03T08:35:55;16.53;;;11.57;;
12784;SDS011;6456;42.680;23.260;2022-11-03T08:38:22;16.43;;;11.10;;
12784;SDS011;6456;42.680;23.260;2022-11-03T08:40:49;20.47;;;11.60;;
12784;SDS011;6456;42.680;23.260;2022-11-03T08:43:17;20.57;;;11.67;;
12784;SDS011;6456;42.680;23.260;2022-11-03T08:45:44;16.33;;;11.20;;
12784;SDS011;6456;42.680;23.260;2022-11-03T08:48:11;16.23;;;10.80;;
12784;SDS011;6456;42.680;23.260;2022-11-03T08:50:38;16.60;;;11.80;;
12784;SDS011;6456;42.680;23.260;2022-11-03T08:53:05;15.50;;;10.93;;
12784;SDS011;6456;42.680;23.260;2022-11-03T08:55:32;19.60;;;12.40;;
12784;SDS011;6456;42.680;23.260;2022-11-03T08:57:59;15.77;;;10.80;;
12784;SDS011;6456;42.680;23.260;2022-11-03T09:00:27;16.10;;;10.90;;
12784;SDS011;6456;42.680;23.260;2022-11-03T09:02:54;16.33;;;11.20;;
12784;SDS011;6456;42.680;23.260;2022-11-03T09:05:21;20.00;;;11.50;;
12784;SDS011;6456;42.680;23.260;2022-11-03T09:07:48;16.20;;;9.87;;
12784;SDS011;6456;42.680;23.260;2022-11-03T09:10:15;18.30;;;10.53;;
12784;SDS011;6456;42.680;23.260;2022-11-03T09:12:42;17.03;;;11.27;;
12784;SDS011;6456;42.680;23.260;2022-11-03T09:15:09;19.33;;;12.47;;
12784;SDS011;6456;42.680;23.260;2022-11-03T09:17:38;20.37;;;11.37;;
12784;SDS011;6456;42.680;23.260;2022-11-03T09:20:05;13.57;;;9.73;;
12784;SDS011;6456;42.680;23.260;2022-11-03T09:22:33;21.13;;;10.40;;
12784;SDS011;6456;42.680;23.260;2022-11-03T09:25:00;14.97;;;9.97;;
12784;SDS011;6456;42.680;23.260;2022-11-03T09:27:27;17.57;;;10.67;;
12784;SDS011;6456;42.680;23.260;2022-11-03T09:29:54;18.77;;;10.40;;
12784;SDS011;6456;42.680;23.260;2022-11-03T09:32:21;16.33;;;10.47;;
12784;SDS011;6456;42.680;23.260;2022-11-03T09:37:40;16.20;;;11.03;;
12784;SDS011;6456;42.680;23.260;2022-11-03T09:40:08;15.83;;;10.40;;
12784;SDS011;6456;42.680;23.260;2022-11-03T09:42:39;29.13;;;12.50;;
12784;SDS011;6456;42.680;23.260;2022-11-03T09:45:07;13.87;;;9.90;;
12784;SDS011;6456;42.680;23.260;2022-11-03T09:47:36;16.30;;;10.07;;
12784;SDS011;6456;42.680;23.260;2022-11-03T09:50:06;16.57;;;10.07;;
12784;SDS011;6456;42.680;23.260;2022-11-03T09:52:40;16.93;;;9.83;;
12784;SDS011;6456;42.680;23.260;2022-11-03T09:55:14;22.20;;;11.33;;
12784;SDS011;6456;42.680;23.260;2022-11-03T09:57:43;17.50;;;10.03;;
12784;SDS011;6456;42.680;23.260;2022-11-03T10:00:15;19.53;;;10.03;;
12784;SDS011;6456;42.680;23.260;2022-11-03T10:02:45;13.60;;;9.97;;
12784;SDS011;6456;42.680;23.260;2022-11-03T10:05:13;16.90;;;9.10;;
12784;SDS011;6456;42.680;23.260;2022-11-03T10:07:45;17.43;;;9.70;;
12784;SDS011;6456;42.680;23.260;2022-11-03T10:10:13;18.23;;;9.63;;
12784;SDS011;6456;42.680;23.260;2022-11-03T10:12:43;18.50;;;8.27;;
12784;SDS011;6456;42.680;23.260;2022-11-03T10:15:12;14.20;;;8.73;;
12784;SDS011;6456;42.680;23.260;2022-11-03T10:17:40;14.37;;;8.63;;
12784;SDS011;6456;42.680;23.260;2022-11-03T10:20:09;16.50;;;8.67;;
12784;SDS011;6456;42.680;23.260;2022-11-03T10:22:37;15.83;;;8.80;;
12784;SDS011;6456;42.680;23.260;2022-11-03T10:28:09;64.33;;;15.93;;
12784;SDS011;6456;42.680;23.260;2022-11-03T10:30:51;31.10;;;10.93;;
12784;SDS011;6456;42.680;23.260;2022-11-03T10:33:23;35.80;;;10.83;;
12784;SDS011;6456;42.680;23.260;2022-11-03T10:36:01;11.13;;;7.07;;
12784;SDS011;6456;42.680;23.260;2022-11-03T10:38:47;11.53;;;6.80;;
12784;SDS011;6456;42.680;23.260;2022-11-03T10:41:16;24.83;;;8.13;;
12784;SDS011;6456;42.680;23.260;2022-11-03T10:43:53;13.87;;;7.20;;
12784;SDS011;6456;42.680;23.260;2022-11-03T10:46:25;36.93;;;9.03;;
12784;SDS011;6456;42.680;23.260;2022-11-03T10:49:00;13.97;;;6.27;;
12784;SDS011;6456;42.680;23.260;2022-11-03T10:51:28;12.73;;;6.33;;
12784;SDS011;6456;42.680;23.260;2022-11-03T10:53:58;13.83;;;5.93;;
12784;SDS011;6456;42.680;23.260;2022-11-03T10:56:26;11.97;;;5.30;;
12784;SDS011;6456;42.680;23.260;2022-11-03T10:58:56;8.40;;;4.63;;
12784;SDS011;6456;42.680;23.260;2022-11-03T11:01:27;10.40;;;4.73;;
12784;SDS011;6456;42.680;23.260;2022-11-03T11:03:55;8.33;;;5.73;;
12784;SDS011;6456;42.680;23.260;2022-11-03T11:06:24;9.63;;;5.63;;
12784;SDS011;6456;42.680;23.260;2022-11-03T11:08:53;7.67;;;4.73;;
12784;SDS011;6456;42.680;23.260;2022-11-03T11:11:30;9.43;;;4.40;;
12784;SDS011;6456;42.680;23.260;2022-11-03T11:16:49;8.13;;;5.13;;
12784;SDS011;6456;42.680;23.260;2022-11-03T11:19:19;10.63;;;5.20;;
12784;SDS011;6456;42.680;23.260;2022-11-03T11:21:57;19.13;;;5.07;;
12784;SDS011;6456;42.680;23.260;2022-11-03T11:24:56;11.57;;;5.00;;
12784;SDS011;6456;42.680;23.260;2022-11-03T11:34:01;12.33;;;5.20;;
12784;SDS011;6456;42.680;23.260;2022-11-03T11:39:59;12.27;;;5.83;;
12784;SDS011;6456;42.680;23.260;2022-11-03T11:42:31;10.67;;;6.37;;
12784;SDS011;6456;42.680;23.260;2022-11-03T11:44:58;13.47;;;6.10;;
12784;SDS011;6456;42.680;23.260;2022-11-03T11:47:42;12.67;;;5.97;;
12784;SDS011;6456;42.680;23.260;2022-11-03T11:50:15;11.17;;;5.90;;
12784;SDS011;6456;42.680;23.260;2022-11-03T11:52:47;10.53;;;5.60;;
12784;SDS011;6456;42.680;23.260;2022-11-03T11:55:19;9.20;;;5.50;;
12784;SDS011;6456;42.680;23.260;2022-11-03T11:57:54;8.97;;;5.73;;
12784;SDS011;6456;42.680;23.260;2022-11-03T12:00:24;10.73;;;6.50;;
12784;SDS011;6456;42.680;23.260;2022-11-03T12:02:56;11.37;;;5.97;;
12784;SDS011;6456;42.680;23.260;2022-11-03T12:05:28;13.77;;;5.53;;
12784;SDS011;6456;42.680;23.260;2022-11-03T12:07:57;9.47;;;5.23;;
12784;SDS011;6456;42.680;23.260;2022-11-03T12:10:25;9.93;;;4.23;;
12784;SDS011;6456;42.680;23.260;2022-11-03T12:12:53;11.27;;;4.70;;
12784;SDS011;6456;42.680;23.260;2022-11-03T12:18:31;11.37;;;3.83;;
12784;SDS011;6456;42.680;23.260;2022-11-03T12:21:00;5.83;;;3.33;;
12784;SDS011;6456;42.680;23.260;2022-11-03T12:23:31;8.57;;;3.83;;
12784;SDS011;6456;42.680;23.260;2022-11-03T12:26:02;8.47;;;3.90;;
12784;SDS011;6456;42.680;23.260;2022-11-03T12:28:33;7.27;;;3.37;;
12784;SDS011;6456;42.680;23.260;2022-11-03T12:31:01;7.70;;;3.60;;
12784;SDS011;6456;42.680;23.260;2022-11-03T12:33:30;13.00;;;3.80;;
12784;SDS011;6456;42.680;23.260;2022-11-03T12:35:59;12.63;;;4.03;;
12784;SDS011;6456;42.680;23.260;2022-11-03T12:38:26;10.90;;;4.70;;
12784;SDS011;6456;42.680;23.260;2022-11-03T12:40:53;12.30;;;4.90;;
12784;SDS011;6456;42.680;23.260;2022-11-03T12:43:19;8.63;;;3.93;;
12784;SDS011;6456;42.680;23.260;2022-11-03T12:45:46;9.70;;;3.97;;
12784;SDS011;6456;42.680;23.260;2022-11-03T12:48:13;12.53;;;4.97;;
12784;SDS011;6456;42.680;23.260;2022-11-03T12:50:41;13.60;;;4.50;;
12784;SDS011;6456;42.680;23.260;2022-11-03T12:53:08;13.17;;;5.13;;
12784;SDS011;6456;42.680;23.260;2022-11-03T12:55:35;10.97;;;4.67;;
12784;SDS011;6456;42.680;23.260;2022-11-03T12:58:02;13.47;;;4.33;;
12784;SDS011;6456;42.680;23.260;2022-11-03T13:00:29;7.63;;;4.03;;
12784;SDS011;6456;42.680;23.260;2022-11-03T13:02:58;9.90;;;4.27;;
12784;SDS011;6456;42.680;23.260;2022-11-03T13:05:26;11.43;;;4.20;;
12784;SDS011;6456;42.680;23.260;2022-11-03T13:08:05;8.20;;;4.13;;
12784;SDS011;6456;42.680;23.260;2022-11-03T13:10:32;9.33;;;4.20;;
12784;SDS011;6456;42.680;23.260;2022-11-03T13:12:59;6.87;;;3.93;;
12784;SDS011;6456;42.680;23.260;2022-11-03T13:15:26;11.40;;;4.60;;
12784;SDS011;6456;42.680;23.260;2022-11-03T13:17:56;8.50;;;4.70;;
12784;SDS011;6456;42.680;23.260;2022-11-03T13:20:23;12.27;;;4.37;;
12784;SDS011;6456;42.680;23.260;2022-11-03T13:22:50;7.97;;;4.40;;
12784;SDS011;6456;42.680;23.260;2022-11-03T13:25:20;12.67;;;5.00;;
12784;SDS011;6456;42.680;23.260;2022-11-03T13:27:48;11.97;;;5.23;;
12784;SDS011;6456;42.680;23.260;2022-11-03T13:30:18;14.50;;;4.73;;
12784;SDS011;6456;42.680;23.260;2022-11-03T13:32:45;12.40;;;5.23;;
12784;SDS011;6456;42.680;23.260;2022-11-03T13:35:15;10.83;;;4.80;;
12784;SDS011;6456;42.680;23.260;2022-11-03T13:37:43;9.10;;;5.07;;
12784;SDS011;6456;42.680;23.260;2022-11-03T13:40:10;11.03;;;4.83;;
12784;SDS011;6456;42.680;23.260;2022-11-03T13:42:40;7.73;;;4.03;;
12784;SDS011;6456;42.680;23.260;2022-11-03T13:45:07;11.10;;;4.60;;
12784;SDS011;6456;42.680;23.260;2022-11-03T13:47:35;14.77;;;4.50;;
12784;SDS011;6456;42.680;23.260;2022-11-03T13:50:03;9.93;;;4.30;;
12784;SDS011;6456;42.680;23.260;2022-11-03T13:52:31;14.40;;;5.13;;
12784;SDS011;6456;42.680;23.260;2022-11-03T13:54:58;14.53;;;5.00;;
12784;SDS011;6456;42.680;23.260;2022-11-03T13:57:28;11.67;;;5.20;;
12784;SDS011;6456;42.680;23.260;2022-11-03T13:59:56;12.17;;;4.80;;
12784;SDS011;6456;42.680;23.260;2022-11-03T14:02:23;11.93;;;4.77;;
12784;SDS011;6456;42.680;23.260;2022-11-03T14:04:50;9.03;;;4.67;;
12784;SDS011;6456;42.680;23.260;2022-11-03T14:07:17;14.18;;;5.03;;
12784;SDS011;6456;42.680;23.260;2022-11-03T14:09:44;12.37;;;4.30;;
12784;SDS011;6456;42.680;23.260;2022-11-03T14:12:11;12.70;;;4.93;;
12784;SDS011;6456;42.680;23.260;2022-11-03T14:14:58;15.00;;;5.37;;
12784;SDS011;6456;42.680;23.260;2022-11-03T14:17:25;10.07;;;4.93;;
12784;SDS011;6456;42.680;23.260;2022-11-03T14:19:52;12.10;;;5.63;;
12784;SDS011;6456;42.680;23.260;2022-11-03T14:22:19;11.23;;;4.50;;
12784;SDS011;6456;42.680;23.260;2022-11-03T14:24:47;18.87;;;5.40;;
12784;SDS011;6456;42.680;23.260;2022-11-03T14:27:14;14.70;;;5.10;;
12784;SDS011;6456;42.680;23.260;2022-11-03T14:29:42;16.47;;;5.23;;
12784;SDS011;6456;42.680;23.260;2022-11-03T14:32:11;13.87;;;5.20;;
12784;SDS011;6456;42.680;23.260;2022-11-03T14:34:38;15.57;;;6.07;;
12784;SDS011;6456;42.680;23.260;2022-11-03T14:37:05;34.23;;;7.73;;
12784;SDS011;6456;42.680;23.260;2022-11-03T14:39:33;26.77;;;6.73;;
12784;SDS011;6456;42.680;23.260;2022-11-03T14:42:00;26.27;;;5.63;;
12784;SDS011;6456;42.680;23.260;2022-11-03T14:44:29;15.93;;;5.63;;
12784;SDS011;6456;42.680;23.260;2022-11-03T14:46:57;10.57;;;5.30;;
12784;SDS011;6456;42.680;23.260;2022-11-03T14:49:26;17.13;;;6.27;;
12784;SDS011;6456;42.680;23.260;2022-11-03T14:51:54;17.63;;;5.17;;
12784;SDS011;6456;42.680;23.260;2022-11-03T14:54:22;18.10;;;5.40;;
12784;SDS011;6456;42.680;23.260;2022-11-03T14:56:49;10.03;;;5.53;;
12784;SDS011;6456;42.680;23.260;2022-11-03T14:59:16;17.03;;;6.40;;
12784;SDS011;6456;42.680;23.260;2022-11-03T15:01:44;25.13;;;6.57;;
12784;SDS011;6456;42.680;23.260;2022-11-03T15:04:12;20.13;;;5.90;;
12784;SDS011;6456;42.680;23.260;2022-11-03T15:06:40;18.00;;;6.37;;
12784;SDS011;6456;42.680;23.260;2022-11-03T15:09:07;16.53;;;6.50;;
12784;SDS011;6456;42.680;23.260;2022-11-03T15:11:35;20.90;;;6.33;;
12784;SDS011;6456;42.680;23.260;2022-11-03T15:14:02;15.37;;;6.30;;